WetterOnline ( https://www.wetteronline.ch )

Wetter aktuell Feuchtwangen

Aktuelles Wetter: Feuchtwangen-Heilbronn (475m)

6-stündlich | Neueste Meldungen
Ortszeit Temperatur Wetter
Di, 02.06. 14:00 23.8° C wolkenlos
Di, 02.06. 8:00 15.6° C wolkenlos
Di, 02.06. 2:00 13.0° C wolkenlos
Mo, 01.06. 20:00 22.4° C wolkenlos
Mo, 01.06. 14:00 22.0° C wolkenlos
Mo, 01.06. 8:00 13.4° C wolkenlos
Mo, 01.06. 2:00 11.8° C wolkig
So, 31.05. 20:00 16.6° C wolkig
Ortszeit Temperatur Wetter
Di, 02.06. 19:00 23.6° C leicht bewölkt
Di, 02.06. 18:40 24.0° C wolkig
Di, 02.06. 18:30 24.6° C wolkig
Di, 02.06. 18:20 24.6° C wolkig
Di, 02.06. 18:10 24.5° C wolkig
Di, 02.06. 18:00 25.0° C leicht bewölkt
Di, 02.06. 17:50 25.0° C leicht bewölkt
Di, 02.06. 17:30 25.4° C wolkenlos
Di, 02.06. 17:00 24.4° C wolkenlos
Di, 02.06. 16:30 24.0° C wolkenlos
Di, 02.06. 16:00 24.9° C wolkenlos
Di, 02.06. 15:30 23.3° C wolkenlos
Ortszeit Relative Feuchte Sichtweite
Di, 02.06. 14:00 30% 45 km
Di, 02.06. 8:00 58% 40 km
Di, 02.06. 2:00 70% 60 km
Mo, 01.06. 20:00 34% 55 km
Mo, 01.06. 14:00 38% 60 km
Mo, 01.06. 8:00 64% 55 km
Mo, 01.06. 2:00 68% 55 km
So, 31.05. 20:00 42% 60 km
Ortszeit Relative Feuchte Sichtweite
Di, 02.06. 19:00 26% 60 km
Di, 02.06. 18:40 26% -
Di, 02.06. 18:30 26% 60 km
Di, 02.06. 18:20 26% -
Di, 02.06. 18:10 25% -
Di, 02.06. 18:00 26% >70 km
Di, 02.06. 17:50 26% -
Di, 02.06. 17:30 27% 50 km
Di, 02.06. 17:00 26% >70 km
Di, 02.06. 16:30 29% 40 km
Di, 02.06. 16:00 28% >70 km
Di, 02.06. 15:30 27% 45 km
Ortszeit Niederschlagsmenge Niederschlagsart
Di, 02.06. 14:00 0.0 l/m2 in 6 Std. -
Di, 02.06. 8:00 0.0 l/m2 in 12 Std. -
Di, 02.06. 2:00 0.0 l/m2 in 6 Std. -
Mo, 01.06. 20:00 0.0 l/m2 in 12 Std. -
Mo, 01.06. 14:00 0.0 l/m2 in 6 Std. -
Mo, 01.06. 8:00 0.0 l/m2 in 12 Std. -
Mo, 01.06. 2:00 0.0 l/m2 in 6 Std. -
So, 31.05. 20:00 0.0 l/m2 in 12 Std. -
Ortszeit Niederschlagsmenge Niederschlagsart
Di, 02.06. 19:00 0.0 l/m2 in 1 Std. -
Di, 02.06. 18:40 keine Meldung -
Di, 02.06. 18:30 0.0 l/m2 in 1 Std. -
Di, 02.06. 18:20 keine Meldung -
Di, 02.06. 18:10 keine Meldung -
Di, 02.06. 18:00 0.0 l/m2 in 1 Std. -
Di, 02.06. 17:50 keine Meldung -
Di, 02.06. 17:30 0.0 l/m2 in 1 Std. -
Di, 02.06. 17:00 0.0 l/m2 in 1 Std. -
Di, 02.06. 16:30 0.0 l/m2 in 1 Std. -
Di, 02.06. 16:00 0.0 l/m2 in 1 Std. -
Di, 02.06. 15:30 0.0 l/m2 in 1 Std. -
Ortszeit Stärke Spitze Richtung
km/h Bft. km/h Grad Sektor
Di, 02.06. 14:00 9 2 24 20° N
Di, 02.06. 8:00 7 2 14 80° O
Di, 02.06. 2:00 11 2 22 80° O
Mo, 01.06. 20:00 14 3 32 30° NO
Mo, 01.06. 14:00 18 3 32 100° O
Mo, 01.06. 8:00 7 2 14 80° O
Mo, 01.06. 2:00 11 2 25 110° O
So, 31.05. 20:00 14 3 29 50° NO
Ortszeit Stärke Spitze Richtung
km/h Bft. km/h Grad Sektor
Di, 02.06. 19:00 7 2 29 60° NO
Di, 02.06. 18:40 11 2 - 40° NO
Di, 02.06. 18:30 9 2 26 320° NW
Di, 02.06. 18:20 9 2 - 320° NW
Di, 02.06. 18:10 7 2 - 50° NO
Di, 02.06. 18:00 7 2 26 360° N
Di, 02.06. 17:50 7 2 - 360° N
Di, 02.06. 17:30 6 1 19 260° W
Di, 02.06. 17:00 7 2 22 40° NO
Di, 02.06. 16:30 7 2 18 50° NO
Di, 02.06. 16:00 7 2 20 30° NO
Di, 02.06. 15:30 11 2 22 110° O
Ortszeit Untergrenze Bedeckung Gattung
total tief tief mittel hoch
Di, 02.06. 14:00 - 0/8 0/8 - - -
Di, 02.06. 8:00 - 0/8 0/8 - - -
Di, 02.06. 2:00 - 0/8 0/8 - - -
Mo, 01.06. 20:00 - 0/8 0/8 - - -
Mo, 01.06. 14:00 - 0/8 0/8 - - -
Mo, 01.06. 8:00 - 0/8 0/8 - - -
Mo, 01.06. 2:00 1500 m 5/8 5/8 - - -
So, 31.05. 20:00 1800 m 6/8 5/8 - - -
Ortszeit Bedeckungsgrad in Achtel und Wolkenuntergrenze
Di, 02.06. 19:00 8(9000m)
Di, 02.06. 18:40 8(9000m)
Di, 02.06. 18:30 5(9000m) 7(10500m)
Di, 02.06. 18:20 5(9000m) 7(10500m)
Di, 02.06. 18:10 2(9000m) 7(10500m)
Di, 02.06. 18:00 6(10500m)
Di, 02.06. 17:50 6(10500m)
Di, 02.06. 17:30 1(10500m)
Di, 02.06. 17:00 keine Wolken
Di, 02.06. 16:30 keine Wolken
Di, 02.06. 16:00 keine Wolken
Di, 02.06. 15:30 keine Wolken
Ortszeit Luftdruck NN (hPa) Tendenz (hPa in 3 Std.)
Di, 02.06. 14:00 1015 - 1,6
Di, 02.06. 8:00 1019 + 0,3
Di, 02.06. 2:00 1019 - 0,3
Mo, 01.06. 20:00 1017 - 0,7
Mo, 01.06. 14:00 1019 - 0,9
Mo, 01.06. 8:00 1022 + 0,5
Mo, 01.06. 2:00 1022 - 0,2
So, 31.05. 20:00 1020 + 0,6
Ortszeit Luftdruck NN (hPa) Tendenz (hPa in 3 Std.)
Di, 02.06. 19:00 1012 - 1,9
Di, 02.06. 18:40 1012 keine Meldung
Di, 02.06. 18:30 1012 - 2,2
Di, 02.06. 18:20 1012 keine Meldung
Di, 02.06. 18:10 1012 keine Meldung
Di, 02.06. 18:00 1012 - 2,2
Di, 02.06. 17:50 1012 keine Meldung
Di, 02.06. 17:30 1012 - 2,2
Di, 02.06. 17:00 1013 - 2,0
Di, 02.06. 16:30 1013 - 2,1
Di, 02.06. 16:00 1014 - 1,9
Di, 02.06. 15:30 1014 - 1,8
Ortszeit Schneehöhe (cm)
Di, 02.06. 14:00 -
Di, 02.06. 8:00 -
Di, 02.06. 2:00 -
Mo, 01.06. 20:00 -
Mo, 01.06. 14:00 -
Mo, 01.06. 8:00 -
Mo, 01.06. 2:00 -
So, 31.05. 20:00 -
Ortszeit Schneehöhe (cm)
Di, 02.06. 19:00 -
Di, 02.06. 18:40 -
Di, 02.06. 18:30 -
Di, 02.06. 18:20 -
Di, 02.06. 18:10 -
Di, 02.06. 18:00 -
Di, 02.06. 17:50 -
Di, 02.06. 17:30 -
Di, 02.06. 17:00 -
Di, 02.06. 16:30 -
Di, 02.06. 16:00 -
Di, 02.06. 15:30 -
Link zu dieser Seite / Seite empfehlen

Das Wetter in ...